createdAt,value
2019-03-04T00:01:21.440Z,11.90
2019-03-04T00:03:51.008Z,11.90
2019-03-04T00:06:20.469Z,11.90
2019-03-04T00:08:50.041Z,12.00
2019-03-04T00:11:19.539Z,12.00
2019-03-04T00:13:49.111Z,12.00
2019-03-04T00:16:18.641Z,12.00
2019-03-04T00:18:48.375Z,12.00
2019-03-04T00:21:17.881Z,12.00
2019-03-04T00:23:47.445Z,12.00
2019-03-04T00:26:17.062Z,12.00
2019-03-04T00:28:46.705Z,12.00
2019-03-04T00:31:16.319Z,12.10
2019-03-04T00:33:45.914Z,12.10
2019-03-04T00:36:15.403Z,12.10
2019-03-04T00:38:44.928Z,12.20
2019-03-04T00:41:14.421Z,12.10
2019-03-04T00:43:43.903Z,12.10
2019-03-04T00:46:13.453Z,12.10
2019-03-04T00:48:42.937Z,12.10
2019-03-04T00:51:12.440Z,12.10
2019-03-04T00:53:41.925Z,12.10
2019-03-04T00:56:11.553Z,12.10
2019-03-04T00:58:41.081Z,12.10
2019-03-04T01:01:10.460Z,12.10
2019-03-04T01:03:39.974Z,12.10
2019-03-04T01:06:09.430Z,12.10
2019-03-04T01:08:39.029Z,12.00
2019-03-04T01:11:08.509Z,12.00
2019-03-04T01:13:38.122Z,12.00
2019-03-04T01:16:07.649Z,11.90
2019-03-04T01:18:37.128Z,11.90
2019-03-04T01:21:07.254Z,11.90
2019-03-04T01:23:36.737Z,11.90
2019-03-04T01:26:06.242Z,11.90
2019-03-04T01:28:35.706Z,11.90
2019-03-04T01:31:05.225Z,11.90
2019-03-04T01:33:34.679Z,11.90
2019-03-04T01:36:04.278Z,11.90
2019-03-04T01:38:33.728Z,11.90
2019-03-04T01:41:03.513Z,11.90
2019-03-04T01:43:33.005Z,11.90
2019-03-04T01:46:02.413Z,11.90
2019-03-04T01:48:31.891Z,11.90
2019-03-04T01:51:01.422Z,11.90
2019-03-04T01:53:30.867Z,11.90
2019-03-04T01:56:00.421Z,11.90
2019-03-04T01:58:29.855Z,11.90
2019-03-04T02:00:59.369Z,11.90
2019-03-04T02:03:28.933Z,11.90
2019-03-04T02:05:58.459Z,11.90
2019-03-04T02:08:27.910Z,11.90
2019-03-04T02:10:57.433Z,11.90
2019-03-04T02:13:26.875Z,11.90
2019-03-04T02:15:56.424Z,12.00
2019-03-04T02:18:25.848Z,11.90
2019-03-04T02:20:55.393Z,12.00
2019-03-04T02:23:24.899Z,12.00
2019-03-04T02:26:24.070Z,11.90
2019-03-04T02:28:53.728Z,12.00
2019-03-04T02:31:23.454Z,11.90
2019-03-04T02:33:53.023Z,11.90
2019-03-04T02:36:22.685Z,11.90
2019-03-04T02:38:53.133Z,11.90
2019-03-04T02:41:22.743Z,11.90
2019-03-04T02:43:52.404Z,11.90
2019-03-04T02:46:22.014Z,11.90
2019-03-04T02:48:51.766Z,12.00
2019-03-04T02:51:21.462Z,12.00
2019-03-04T02:53:51.096Z,12.10
2019-03-04T02:56:20.812Z,12.10
2019-03-04T02:58:50.511Z,12.10
2019-03-04T03:01:20.267Z,12.10
2019-03-04T03:03:50.044Z,12.10
2019-03-04T03:06:19.540Z,12.10
2019-03-04T03:08:49.507Z,12.10
2019-03-04T03:11:19.114Z,12.00
2019-03-04T03:13:48.946Z,12.00
2019-03-04T03:16:18.610Z,12.00
2019-03-04T03:18:48.309Z,12.00
2019-03-04T03:21:18.218Z,12.00
2019-03-04T03:23:47.947Z,12.00
2019-03-04T03:26:17.465Z,12.00
2019-03-04T03:28:47.270Z,12.00
2019-03-04T03:31:16.877Z,12.00
2019-03-04T03:33:46.709Z,11.90
2019-03-04T03:36:16.459Z,12.00
2019-03-04T03:38:46.231Z,11.90
2019-03-04T03:41:15.834Z,11.90
2019-03-04T03:43:45.371Z,11.80
2019-03-04T03:46:15.027Z,11.80
2019-03-04T03:48:44.861Z,11.70
2019-03-04T03:51:14.335Z,11.70
2019-03-04T03:53:43.875Z,11.60
2019-03-04T03:56:13.622Z,11.60
2019-03-04T03:58:43.204Z,11.60
2019-03-04T04:01:12.799Z,11.60
2019-03-04T04:03:42.374Z,11.60
2019-03-04T04:06:12.154Z,11.50
2019-03-04T04:08:42.015Z,11.50
2019-03-04T04:11:11.621Z,11.50
2019-03-04T04:13:41.207Z,11.50
2019-03-04T04:16:10.790Z,11.50
2019-03-04T04:18:40.340Z,11.50
2019-03-04T04:21:10.220Z,11.50
2019-03-04T04:23:39.944Z,11.50
2019-03-04T04:26:21.613Z,11.50
2019-03-04T04:29:00.296Z,11.50
2019-03-04T04:31:30.065Z,11.60
2019-03-04T04:33:59.722Z,11.70
2019-03-04T04:36:29.356Z,11.70
2019-03-04T04:39:01.518Z,11.80
2019-03-04T04:41:31.336Z,11.80
2019-03-04T04:44:01.046Z,11.90
2019-03-04T04:46:49.092Z,12.00
2019-03-04T04:49:18.634Z,12.00
2019-03-04T04:51:48.688Z,12.10
2019-03-04T04:54:18.336Z,12.20
2019-03-04T04:56:48.176Z,12.30
2019-03-04T04:59:17.738Z,12.40
2019-03-04T05:01:47.344Z,12.50
2019-03-04T05:04:17.040Z,12.60
2019-03-04T05:06:46.683Z,12.60
2019-03-04T05:09:16.282Z,12.60
2019-03-04T05:11:45.898Z,12.60
2019-03-04T05:14:15.605Z,12.60
2019-03-04T05:16:45.216Z,12.60
2019-03-04T05:19:14.823Z,12.70
2019-03-04T05:21:44.632Z,12.70
2019-03-04T05:24:14.264Z,12.70
2019-03-04T05:26:43.994Z,12.70
2019-03-04T05:29:13.635Z,12.80
2019-03-04T05:31:44.013Z,12.80
2019-03-04T05:34:13.693Z,12.80
2019-03-04T05:36:43.466Z,12.80
2019-03-04T05:39:13.136Z,12.80
2019-03-04T05:41:42.894Z,12.80
2019-03-04T05:44:12.495Z,12.80
2019-03-04T05:46:42.224Z,12.80
2019-03-04T05:49:11.806Z,12.90
2019-03-04T05:51:42.081Z,12.80
2019-03-04T05:54:11.881Z,12.80
2019-03-04T05:56:41.390Z,12.90
2019-03-04T05:59:19.387Z,12.90
2019-03-04T06:01:46.745Z,12.90
2019-03-04T06:04:16.312Z,13.00
2019-03-04T06:07:02.297Z,13.00
2019-03-04T06:09:32.300Z,13.00
2019-03-04T06:12:02.553Z,13.00
2019-03-04T06:14:32.206Z,12.90
2019-03-04T06:17:01.899Z,12.90
2019-03-04T06:19:31.582Z,12.90
2019-03-04T06:22:02.063Z,13.00
2019-03-04T06:24:31.661Z,12.90
2019-03-04T06:27:01.410Z,13.00
2019-03-04T06:29:30.880Z,12.90
2019-03-04T06:32:00.995Z,12.50
2019-03-04T06:34:30.527Z,11.90
2019-03-04T06:37:00.254Z,10.60
2019-03-04T06:39:29.784Z,9.70
2019-03-04T06:41:59.680Z,9.40
2019-03-04T06:44:29.276Z,9.30
2019-03-04T06:46:59.472Z,9.20
2019-03-04T06:49:29.422Z,9.30
2019-03-04T06:51:59.361Z,9.30
2019-03-04T06:55:21.798Z,9.20
2019-03-04T06:57:53.646Z,9.20
2019-03-04T07:01:00.283Z,9.10
2019-03-04T07:03:38.302Z,9.00
2019-03-04T07:06:07.799Z,9.00
2019-03-04T07:09:04.856Z,9.10
2019-03-04T07:11:34.695Z,9.00
2019-03-04T07:14:04.358Z,9.00
2019-03-04T07:16:33.795Z,9.10
2019-03-04T07:19:09.404Z,9.00
2019-03-04T07:21:39.115Z,8.90
2019-03-04T07:24:08.690Z,8.90
2019-03-04T07:26:38.685Z,8.80
2019-03-04T07:29:08.365Z,8.80
2019-03-04T07:31:38.024Z,8.80
2019-03-04T07:34:07.708Z,8.80
2019-03-04T07:36:37.243Z,8.80
2019-03-04T07:39:17.269Z,8.90
2019-03-04T07:41:52.741Z,9.00
2019-03-04T07:44:22.333Z,9.00
2019-03-04T07:46:51.917Z,9.00
2019-03-04T07:49:21.585Z,8.90
2019-03-04T07:51:52.232Z,8.90
2019-03-04T07:54:21.766Z,8.70
2019-03-04T07:56:51.355Z,8.70
2019-03-04T07:59:20.845Z,8.70
2019-03-04T08:01:50.397Z,8.70
2019-03-04T08:04:19.982Z,8.90
2019-03-04T08:06:49.716Z,9.00
2019-03-04T08:09:49.182Z,9.10
2019-03-04T08:13:11.753Z,9.20
2019-03-04T08:15:47.753Z,9.30
2019-03-04T08:18:18.572Z,9.50
2019-03-04T08:20:48.121Z,9.80
2019-03-04T08:23:17.713Z,9.90
2019-03-04T08:25:47.398Z,9.90
2019-03-04T08:28:18.168Z,9.90
2019-03-04T08:30:47.714Z,9.90
2019-03-04T08:33:17.795Z,9.80
2019-03-04T08:35:47.263Z,9.40
2019-03-04T08:38:17.998Z,8.80
2019-03-04T08:40:47.748Z,8.60
2019-03-04T08:43:17.522Z,8.60
2019-03-04T08:45:47.050Z,8.50
2019-03-04T08:48:16.705Z,8.30
2019-03-04T08:50:46.285Z,8.40
2019-03-04T08:53:16.030Z,8.50
2019-03-04T08:55:45.648Z,8.50
2019-03-04T08:58:15.544Z,8.70
2019-03-04T09:00:45.265Z,8.90
2019-03-04T09:03:14.903Z,9.10
2019-03-04T09:05:44.591Z,9.30
2019-03-04T09:08:15.594Z,9.40
2019-03-04T09:10:45.370Z,9.50
2019-03-04T09:13:14.972Z,9.70
2019-03-04T09:15:44.496Z,10.00
2019-03-04T09:18:14.158Z,10.30
2019-03-04T09:20:43.741Z,10.40
2019-03-04T09:23:13.352Z,10.50
2019-03-04T09:25:53.317Z,10.50
2019-03-04T09:28:23.016Z,10.40
2019-03-04T09:30:52.640Z,10.40
2019-03-04T09:33:22.250Z,10.40
2019-03-04T09:35:51.738Z,10.40
2019-03-04T09:38:22.390Z,10.50
2019-03-04T09:40:51.974Z,10.40
2019-03-04T09:43:21.513Z,10.50
2019-03-04T09:45:51.003Z,10.50
2019-03-04T09:48:20.518Z,10.40
2019-03-04T09:50:50.026Z,10.60
2019-03-04T09:53:39.732Z,10.50
2019-03-04T09:56:09.446Z,10.70
2019-03-04T09:58:39.134Z,10.70
2019-03-04T10:01:32.378Z,10.70
2019-03-04T10:04:10.908Z,10.60
2019-03-04T10:07:21.232Z,10.60
2019-03-04T10:10:32.667Z,10.40
2019-03-04T10:13:57.163Z,10.00
2019-03-04T10:16:52.133Z,9.50
2019-03-04T10:19:42.530Z,9.30
2019-03-04T10:22:50.316Z,9.30
2019-03-04T10:25:59.428Z,9.10
2019-03-04T10:29:07.510Z,9.10
2019-03-04T10:32:01.292Z,9.10
2019-03-04T10:35:03.767Z,9.10
2019-03-04T10:38:25.571Z,9.20
2019-03-04T10:41:41.753Z,9.40
2019-03-04T10:44:52.624Z,9.60
2019-03-04T10:47:22.387Z,9.60
2019-03-04T10:49:51.943Z,9.60
2019-03-04T10:52:21.477Z,9.60
2019-03-04T10:54:51.101Z,9.60
2019-03-04T10:57:20.789Z,9.70
2019-03-04T10:59:50.309Z,9.60
2019-03-04T11:02:19.828Z,9.70
2019-03-04T11:04:49.485Z,9.80
2019-03-04T11:07:19.183Z,9.80
2019-03-04T11:09:48.695Z,9.70
2019-03-04T11:12:18.526Z,9.50
2019-03-04T11:14:48.099Z,9.40
2019-03-04T11:17:17.716Z,9.00
2019-03-04T11:19:47.426Z,8.80
2019-03-04T11:22:17.147Z,8.30
2019-03-04T11:24:46.810Z,7.90
2019-03-04T11:27:16.539Z,7.50
2019-03-04T11:29:46.083Z,7.30
2019-03-04T11:32:15.637Z,7.10
2019-03-04T11:34:45.272Z,6.80
2019-03-04T11:37:14.839Z,6.80
2019-03-04T11:40:06.575Z,6.70
2019-03-04T11:42:36.281Z,6.70
2019-03-04T11:45:09.263Z,6.70
2019-03-04T11:47:38.930Z,6.80
2019-03-04T11:50:17.059Z,6.90
2019-03-04T11:52:46.713Z,7.00
2019-03-04T11:55:16.405Z,7.20
2019-03-04T11:57:46.023Z,7.30
2019-03-04T12:00:23.814Z,7.40
2019-03-04T12:02:53.544Z,7.50
2019-03-04T12:05:23.267Z,7.40
2019-03-04T12:07:52.855Z,7.50
2019-03-04T12:10:22.545Z,7.60
2019-03-04T12:12:52.208Z,7.80
2019-03-04T12:15:22.083Z,7.80
2019-03-04T12:17:51.769Z,7.70
2019-03-04T12:20:21.500Z,8.10
2019-03-04T12:22:51.063Z,8.20
2019-03-04T12:25:21.279Z,8.40
2019-03-04T12:27:50.858Z,8.50
2019-03-04T12:30:20.597Z,8.40
2019-03-04T12:32:50.137Z,8.50
2019-03-04T12:35:19.765Z,8.40
2019-03-04T12:37:49.646Z,8.50
2019-03-04T12:40:19.387Z,8.30
2019-03-04T12:42:49.081Z,8.30
2019-03-04T12:45:18.788Z,8.10
2019-03-04T12:47:48.485Z,8.10
2019-03-04T12:50:21.290Z,8.00
2019-03-04T12:52:51.055Z,8.00
2019-03-04T12:55:20.601Z,8.00
2019-03-04T12:57:50.299Z,8.20
2019-03-04T13:00:21.361Z,8.20
2019-03-04T13:02:57.699Z,8.40
2019-03-04T13:05:22.217Z,8.40
2019-03-04T13:07:52.072Z,8.50
2019-03-04T13:10:22.092Z,8.60
2019-03-04T13:12:51.936Z,8.80
2019-03-04T13:15:23.027Z,8.90
2019-03-04T13:17:52.784Z,8.90
2019-03-04T13:20:22.377Z,9.00
2019-03-04T13:22:51.990Z,9.00
2019-03-04T13:25:21.671Z,9.00
2019-03-04T13:27:51.134Z,8.90
2019-03-04T13:30:23.722Z,9.00
2019-03-04T13:32:53.550Z,9.00
2019-03-04T13:35:24.805Z,9.10
2019-03-04T13:37:54.642Z,9.20
2019-03-04T13:40:24.282Z,9.40
2019-03-04T13:42:53.882Z,9.10
2019-03-04T13:45:23.626Z,9.20
2019-03-04T13:47:53.316Z,9.20
2019-03-04T13:50:24.172Z,9.20
2019-03-04T13:52:53.992Z,9.20
2019-03-04T13:55:23.491Z,9.20
2019-03-04T13:57:53.840Z,9.10
2019-03-04T14:00:23.405Z,9.00
2019-03-04T14:02:52.844Z,8.90
2019-03-04T14:05:22.535Z,8.90
2019-03-04T14:07:52.062Z,8.90
2019-03-04T14:10:21.726Z,9.00
2019-03-04T14:12:51.540Z,9.10
2019-03-04T14:15:24.174Z,9.40
2019-03-04T14:17:54.029Z,9.40
2019-03-04T14:20:24.090Z,9.40
2019-03-04T14:22:57.674Z,9.20
2019-03-04T14:25:23.926Z,9.10
2019-03-04T14:27:53.464Z,9.20
2019-03-04T14:30:23.337Z,9.30
2019-03-04T14:32:53.084Z,9.40
2019-03-04T14:35:22.753Z,9.40
2019-03-04T14:37:52.401Z,9.50
2019-03-04T14:40:25.318Z,9.30
2019-03-04T14:42:55.280Z,9.30
2019-03-04T14:45:25.319Z,9.40
2019-03-04T14:47:54.855Z,9.40
2019-03-04T14:50:24.512Z,9.30
2019-03-04T14:52:54.006Z,9.30
2019-03-04T14:55:23.543Z,9.40
2019-03-04T14:57:56.623Z,9.50
2019-03-04T15:00:30.519Z,9.50
2019-03-04T15:03:00.429Z,9.40
2019-03-04T15:05:29.968Z,9.20
2019-03-04T15:07:59.596Z,9.30
2019-03-04T15:10:29.265Z,9.20
2019-03-04T15:12:58.743Z,9.30
2019-03-04T15:15:28.321Z,9.20
2019-03-04T15:17:57.859Z,9.10
2019-03-04T15:20:27.995Z,9.00
2019-03-04T15:22:57.653Z,9.00
2019-03-04T15:25:30.434Z,9.00
2019-03-04T15:28:11.371Z,9.00
2019-03-04T15:30:41.999Z,9.10
2019-03-04T15:33:17.950Z,9.00
2019-03-04T15:35:42.946Z,9.00
2019-03-04T15:38:12.482Z,9.00
2019-03-04T15:40:42.223Z,8.90
2019-03-04T15:43:12.370Z,8.90
2019-03-04T15:45:45.827Z,8.80
2019-03-04T15:48:16.203Z,8.70
2019-03-04T15:50:45.843Z,8.70
2019-03-04T15:53:15.335Z,8.70
2019-03-04T15:55:45.313Z,8.60
2019-03-04T15:58:14.799Z,8.60
2019-03-04T16:00:44.433Z,8.50
2019-03-04T16:03:14.183Z,8.50
2019-03-04T16:05:43.779Z,8.40
2019-03-04T16:08:13.398Z,8.40
2019-03-04T16:10:43.993Z,8.40
2019-03-04T16:13:13.598Z,8.40
2019-03-04T16:15:44.550Z,8.30
2019-03-04T16:18:14.040Z,8.30
2019-03-04T16:20:43.638Z,8.20
2019-03-04T16:23:13.219Z,8.10
2019-03-04T16:25:42.849Z,8.10
2019-03-04T16:28:24.383Z,8.10
2019-03-04T16:30:53.999Z,8.00
2019-03-04T16:33:24.144Z,7.90
2019-03-04T16:35:53.709Z,7.90
2019-03-04T16:38:24.032Z,7.90
2019-03-04T16:40:53.495Z,7.80
2019-03-04T16:43:23.371Z,7.90
2019-03-04T16:45:52.788Z,7.80
2019-03-04T16:48:22.382Z,7.90
2019-03-04T16:50:51.843Z,7.80
2019-03-04T16:53:22.174Z,7.80
2019-03-04T16:55:51.662Z,7.80
2019-03-04T16:58:21.273Z,7.70
2019-03-04T17:00:50.840Z,7.60
2019-03-04T17:03:20.373Z,7.60
2019-03-04T17:05:49.915Z,7.60
2019-03-04T17:08:19.381Z,7.60
2019-03-04T17:10:50.608Z,7.60
2019-03-04T17:13:20.239Z,7.50
2019-03-04T17:15:49.888Z,7.50
2019-03-04T17:18:19.511Z,7.50
2019-03-04T17:20:49.170Z,7.50
2019-03-04T17:23:18.793Z,7.40
2019-03-04T17:25:48.528Z,7.40
2019-03-04T17:28:18.271Z,7.40
2019-03-04T17:30:48.040Z,7.30
2019-03-04T17:33:20.544Z,7.30
2019-03-04T17:35:50.239Z,7.20
2019-03-04T17:38:19.950Z,7.20
2019-03-04T17:40:49.670Z,7.10
2019-03-04T17:43:19.486Z,7.10
2019-03-04T17:45:49.014Z,7.10
2019-03-04T17:48:19.003Z,7.10
2019-03-04T17:50:48.641Z,7.10
2019-03-04T17:53:18.468Z,7.10
2019-03-04T17:55:47.957Z,7.20
2019-03-04T17:58:17.520Z,7.20
2019-03-04T18:00:52.243Z,7.20
2019-03-04T18:03:21.800Z,7.20
2019-03-04T18:05:51.480Z,7.20
2019-03-04T18:08:21.044Z,7.20
2019-03-04T18:10:50.740Z,7.20
2019-03-04T18:13:20.296Z,7.20
2019-03-04T18:15:49.833Z,7.20
2019-03-04T18:18:19.401Z,7.20
2019-03-04T18:20:49.083Z,7.20
2019-03-04T18:23:22.464Z,7.10
2019-03-04T18:26:00.753Z,7.00
2019-03-04T18:29:08.440Z,7.00
2019-03-04T18:31:50.516Z,7.00
2019-03-04T18:35:24.464Z,6.90
2019-03-04T18:38:32.142Z,6.90
2019-03-04T18:41:24.292Z,7.10
2019-03-04T18:44:13.305Z,7.20
2019-03-04T18:47:04.514Z,7.10
2019-03-04T18:49:34.028Z,7.10
2019-03-04T18:52:03.552Z,7.00
2019-03-04T18:54:33.803Z,7.00
2019-03-04T18:57:03.311Z,7.00
2019-03-04T18:59:32.799Z,7.00
2019-03-04T19:02:02.346Z,7.10
2019-03-04T19:04:32.199Z,7.10
2019-03-04T19:07:05.122Z,7.00
2019-03-04T19:09:34.760Z,7.10
2019-03-04T19:12:04.447Z,7.10
2019-03-04T19:14:33.968Z,7.10
2019-03-04T19:17:03.622Z,7.10
2019-03-04T19:19:33.115Z,7.10
2019-03-04T19:22:02.744Z,7.10
2019-03-04T19:24:32.222Z,7.10
2019-03-04T19:27:01.927Z,7.00
2019-03-04T19:29:31.370Z,7.00
2019-03-04T19:32:00.958Z,7.10
2019-03-04T19:34:30.400Z,7.10
2019-03-04T19:36:59.959Z,7.10
2019-03-04T19:39:29.653Z,7.10
2019-03-04T19:41:59.278Z,7.00
2019-03-04T19:44:28.858Z,6.90
2019-03-04T19:46:58.373Z,6.90
2019-03-04T19:49:28.035Z,6.80
2019-03-04T19:51:57.639Z,6.80
2019-03-04T19:54:27.266Z,6.80
2019-03-04T19:56:58.197Z,6.80
2019-03-04T19:59:27.842Z,6.80
2019-03-04T20:01:57.516Z,6.80
2019-03-04T20:04:27.116Z,6.80
2019-03-04T20:06:56.717Z,6.70
2019-03-04T20:09:26.389Z,6.70
2019-03-04T20:11:56.063Z,6.70
2019-03-04T20:14:25.538Z,6.60
2019-03-04T20:16:55.265Z,6.60
2019-03-04T20:19:24.834Z,6.60
2019-03-04T20:21:54.479Z,6.60
2019-03-04T20:24:23.995Z,6.50
2019-03-04T20:26:53.873Z,6.50
2019-03-04T20:29:23.423Z,6.50
2019-03-04T20:31:53.077Z,6.50
2019-03-04T20:34:25.808Z,6.50
2019-03-04T20:36:57.151Z,6.40
2019-03-04T20:39:26.789Z,6.50
2019-03-04T20:41:57.571Z,6.50
2019-03-04T20:44:27.072Z,6.50
2019-03-04T20:46:56.748Z,6.50
2019-03-04T20:49:26.421Z,6.50
2019-03-04T20:51:56.050Z,6.50
2019-03-04T20:54:25.613Z,6.50
2019-03-04T20:56:55.363Z,6.60
2019-03-04T20:59:24.984Z,6.70
2019-03-04T21:01:54.712Z,6.80
2019-03-04T21:04:24.274Z,6.90
2019-03-04T21:06:53.948Z,7.00
2019-03-04T21:09:25.806Z,7.00
2019-03-04T21:11:55.918Z,7.10
2019-03-04T21:14:29.013Z,7.10
2019-03-04T21:16:59.423Z,7.10
2019-03-04T21:19:29.293Z,7.20
2019-03-04T21:22:02.718Z,7.20
2019-03-04T21:24:35.248Z,7.30
2019-03-04T21:27:05.164Z,7.30
2019-03-04T21:30:14.279Z,7.30
2019-03-04T21:33:09.156Z,7.30
2019-03-04T21:36:34.545Z,7.30
2019-03-04T21:39:05.582Z,7.20
2019-03-04T21:41:54.655Z,7.30
2019-03-04T21:44:55.601Z,7.30
2019-03-04T21:47:34.874Z,7.30
2019-03-04T21:50:04.982Z,7.30
2019-03-04T21:53:01.293Z,7.30
2019-03-04T21:55:52.454Z,7.30
2019-03-04T21:58:22.049Z,7.30
2019-03-04T22:01:01.393Z,7.30
2019-03-04T22:03:34.241Z,7.40
2019-03-04T22:06:07.027Z,7.40
2019-03-04T22:08:37.649Z,7.40
2019-03-04T22:11:10.818Z,7.20
2019-03-04T22:13:41.455Z,7.00
2019-03-04T22:16:12.314Z,6.80
2019-03-04T22:18:42.328Z,6.70
2019-03-04T22:21:31.243Z,6.70
2019-03-04T22:24:01.058Z,6.70
2019-03-04T22:26:30.774Z,6.60
2019-03-04T22:29:00.416Z,6.60
2019-03-04T22:31:30.077Z,6.60
2019-03-04T22:33:59.738Z,6.50
2019-03-04T22:36:29.411Z,6.50
2019-03-04T22:38:59.579Z,6.40
2019-03-04T22:41:29.762Z,6.30
2019-03-04T22:44:03.854Z,6.20
2019-03-04T22:46:38.348Z,6.20
2019-03-04T22:49:08.090Z,6.20
2019-03-04T22:51:39.762Z,6.20
2019-03-04T22:54:14.939Z,6.10
2019-03-04T22:56:44.618Z,6.10
2019-03-04T22:59:14.319Z,6.20
2019-03-04T23:01:56.193Z,6.20
2019-03-04T23:05:09.740Z,6.20
2019-03-04T23:07:45.416Z,6.20
2019-03-04T23:10:44.433Z,6.30
2019-03-04T23:13:53.765Z,6.30
2019-03-04T23:16:27.310Z,6.20
2019-03-04T23:18:56.941Z,6.30
2019-03-04T23:21:26.477Z,6.20
2019-03-04T23:23:55.985Z,6.30
2019-03-04T23:26:25.590Z,6.30
2019-03-04T23:28:55.281Z,6.30
2019-03-04T23:31:25.760Z,6.30
2019-03-04T23:33:55.333Z,6.30
2019-03-04T23:36:27.812Z,6.30
2019-03-04T23:38:57.932Z,6.40
2019-03-04T23:41:27.619Z,6.40
2019-03-04T23:43:58.026Z,6.50
2019-03-04T23:46:27.624Z,6.50
2019-03-04T23:48:57.328Z,6.60
2019-03-04T23:51:27.172Z,6.60
2019-03-04T23:53:56.859Z,6.60
2019-03-04T23:56:26.880Z,6.60
2019-03-04T23:58:56.661Z,6.60
